Time;durP1;ratioP1;P1;durP2;ratioP2;P2;SDS_P1;SDS_P2;PMS_P1;PMS_P2;Temp;Humidity;BMP_temperature;BMP_pressure;BME280_temperature;BME280_humidity;BME280_pressure;Samples;Min_cycle;Max_cycle;Signal;HPM_P1;HPM_P2
2024/01/13 00:04:44;;;;;;;1.80;0.98;;;;;;;17.24;49.38;102640.19;10454462;28;20283;-51
2024/01/13 00:09:45;;;;;;;2.53;1.33;;;;;;;17.26;49.36;102627.34;10447838;28;20037;-52
2024/01/13 00:14:45;;;;;;;2.55;1.40;;;;;;;17.29;49.39;102626.88;10454336;28;20619;-50
2024/01/13 00:19:45;;;;;;;1.70;1.23;;;;;;;17.29;48.26;102629.56;10447648;28;20029;-51
2024/01/13 00:24:46;;;;;;;2.33;1.67;;;;;;;17.26;48.46;102630.03;10450474;28;20762;-51
2024/01/13 00:29:46;;;;;;;1.53;1.10;;;;;;;17.23;48.37;102622.47;10456660;28;20287;-49
2024/01/13 00:34:46;;;;;;;2.42;1.60;;;;;;;17.20;48.03;102615.72;10455193;28;20395;-51
2024/01/13 00:39:47;;;;;;;2.83;1.80;;;;;;;17.18;48.13;102607.13;10449611;28;20357;-49
2024/01/13 00:44:47;;;;;;;3.08;1.35;;;;;;;17.23;48.44;102601.03;10453506;28;20298;-50
2024/01/13 00:49:47;;;;;;;2.27;1.30;;;;;;;17.31;48.08;102589.91;10452680;28;20036;-51
2024/01/13 00:54:48;;;;;;;2.33;1.40;;;;;;;17.31;48.76;102581.88;10452995;28;20279;-51
2024/01/13 00:59:48;;;;;;;2.50;1.40;;;;;;;17.34;48.49;102577.91;10452053;28;20275;-50
2024/01/13 01:04:48;;;;;;;2.60;1.60;;;;;;;17.34;48.98;102564.50;10452187;28;20327;-50
2024/01/13 01:09:48;;;;;;;2.03;1.10;;;;;;;17.33;48.28;102570.91;10451581;28;20298;-50
2024/01/13 01:14:49;;;;;;;1.63;1.10;;;;;;;17.34;47.78;102561.81;10451120;28;20798;-53
2024/01/13 01:19:49;;;;;;;1.73;1.10;;;;;;;17.30;47.77;102572.22;10450557;28;20024;-49
2024/01/13 01:24:49;;;;;;;2.33;1.33;;;;;;;17.32;48.32;102571.97;10451355;28;20025;-48
2024/01/13 01:29:50;;;;;;;2.93;1.60;;;;;;;17.31;49.10;102562.28;10454482;28;20365;-49
2024/01/13 01:34:50;;;;;;;1.70;1.00;;;;;;;17.32;47.77;102558.56;10451136;28;20774;-52
2024/01/13 01:39:50;;;;;;;1.87;1.13;;;;;;;17.31;47.88;102544.34;10445422;28;20272;-51
2024/01/13 01:44:51;;;;;;;2.33;1.40;;;;;;;17.32;48.24;102542.47;10451019;28;20747;-49
2024/01/13 01:49:51;;;;;;;2.33;1.60;;;;;;;17.31;49.01;102540.84;10450091;28;20287;-48
2024/01/13 01:54:51;;;;;;;2.38;0.90;;;;;;;17.30;47.73;102539.22;10450519;28;20613;-49
2024/01/13 01:59:52;;;;;;;1.40;0.93;;;;;;;17.33;47.59;102538.72;10450271;28;20025;-49
2024/01/13 02:04:52;;;;;;;2.15;1.20;;;;;;;17.30;47.97;102536.53;10450475;28;20378;-49
2024/01/13 02:09:53;;;;;;;1.35;0.93;;;;;;;17.31;47.92;102536.28;10449376;28;20052;-51
2024/01/13 02:14:54;;;;;;;2.10;1.27;;;;;;;17.29;48.77;102532.25;10449844;28;20427;-49
2024/01/13 02:19:55;;;;;;;2.85;1.02;;;;;;;17.30;48.64;102513.22;10449752;28;20146;-51
2024/01/13 02:24:55;;;;;;;1.65;0.95;;;;;;;17.28;47.93;102498.41;10452499;28;20091;-50
2024/01/13 02:29:55;;;;;;;1.73;0.70;;;;;;;17.31;49.32;102506.81;10461700;28;20134;-50
2024/01/13 02:34:56;;;;;;;3.13;1.15;;;;;;;17.31;47.68;102500.63;10458248;28;20036;-50
2024/01/13 02:39:56;;;;;;;1.25;0.85;;;;;;;17.30;48.84;102491.78;10456157;28;20032;-50
2024/01/13 02:44:56;;;;;;;1.57;1.07;;;;;;;17.25;48.68;102481.75;10457660;28;20033;-48
2024/01/13 02:49:57;;;;;;;1.70;0.80;;;;;;;17.30;47.43;102464.97;10457372;28;20689;-49
2024/01/13 02:54:57;;;;;;;1.47;0.97;;;;;;;17.29;48.21;102443.75;10457609;28;20275;-49
2024/01/13 02:59:57;;;;;;;1.53;0.97;;;;;;;17.30;48.48;102438.16;10456805;28;20268;-50
2024/01/13 03:04:58;;;;;;;1.27;0.93;;;;;;;17.30;49.12;102410.53;10457012;28;20287;-51
2024/01/13 03:09:58;;;;;;;1.45;0.82;;;;;;;17.28;48.11;102415.31;10450353;28;20041;-50
2024/01/13 03:15:00;;;;;;;0.77;0.60;;;;;;;17.30;48.04;102418.56;10456713;28;20025;-49
2024/01/13 03:20:00;;;;;;;1.83;1.15;;;;;;;17.30;48.56;102399.81;10455980;28;20272;-49
2024/01/13 03:25:00;;;;;;;1.93;0.90;;;;;;;17.30;48.58;102399.81;10456225;28;20709;-50
2024/01/13 03:30:01;;;;;;;2.83;1.30;;;;;;;17.28;47.49;102391.19;10460554;28;20344;-52
2024/01/13 03:35:01;;;;;;;1.17;0.73;;;;;;;17.29;48.15;102388.28;10456107;28;20329;-49
2024/01/13 03:40:02;;;;;;;1.42;0.98;;;;;;;17.30;47.81;102384.53;10454869;28;20017;-49
2024/01/13 03:45:03;;;;;;;1.98;1.05;;;;;;;17.34;48.84;102368.75;10455371;28;20029;-50
2024/01/13 03:50:03;;;;;;;1.50;0.90;;;;;;;17.31;48.98;102367.38;10455363;28;20025;-49
2024/01/13 03:55:04;;;;;;;1.90;1.10;;;;;;;17.30;47.79;102360.41;10454585;28;20045;-49
2024/01/13 04:00:06;;;;;;;1.70;1.00;;;;;;;17.31;48.60;102366.56;10454790;28;20078;-49
2024/01/13 04:05:07;;;;;;;1.52;0.90;;;;;;;17.31;49.14;102358.53;10454491;28;20040;-52
2024/01/13 04:10:07;;;;;;;2.78;1.30;;;;;;;17.34;48.78;102358.03;10453676;28;20053;-50
2024/01/13 04:15:09;;;;;;;1.63;1.10;;;;;;;17.33;47.87;102348.38;10454096;28;20087;-50
2024/01/13 04:20:10;;;;;;;2.00;1.27;;;;;;;17.32;48.38;102350.25;10454256;28;20048;-49
2024/01/13 04:25:10;;;;;;;1.50;1.00;;;;;;;17.30;48.78;102347.00;10435799;28;20036;-50
2024/01/13 04:30:11;;;;;;;2.17;1.30;;;;;;;17.33;48.06;102346.50;10453569;28;20029;-49
2024/01/13 04:35:11;;;;;;;1.63;1.20;;;;;;;17.31;47.70;102343.25;10453278;28;20071;-53
2024/01/13 04:40:11;;;;;;;2.20;0.95;;;;;;;17.32;47.83;102338.72;10450969;28;20445;-51
2024/01/13 04:45:12;;;;;;;1.60;0.85;;;;;;;17.31;48.07;102334.41;10452826;28;20487;-49
2024/01/13 04:50:12;;;;;;;2.03;0.98;;;;;;;17.29;47.65;102337.34;10451848;28;20438;-50
2024/01/13 04:55:12;;;;;;;3.38;1.30;;;;;;;17.31;48.47;102340.59;10451246;28;20033;-52
2024/01/13 05:00:13;;;;;;;1.80;1.10;;;;;;;17.32;48.87;102333.34;10451662;28;20399;-52
2024/01/13 05:05:14;;;;;;;1.00;0.80;;;;;;;17.31;48.03;102312.97;10451084;28;20282;-53
2024/01/13 05:10:14;;;;;;;1.80;1.20;;;;;;;17.32;48.49;102326.13;10450598;28;20056;-51
2024/01/13 05:15:14;;;;;;;1.50;0.97;;;;;;;17.32;49.15;102317.25;10451845;28;20287;-52
2024/01/13 05:20:15;;;;;;;1.67;1.03;;;;;;;17.32;48.63;102312.72;10446550;28;20294;-49
2024/01/13 05:25:15;;;;;;;1.80;0.98;;;;;;;17.32;49.08;102317.25;10451219;28;20848;-50
2024/01/13 05:30:16;;;;;;;1.80;1.00;;;;;;;17.33;47.60;102337.66;10454885;28;20029;-52
2024/01/13 05:35:16;;;;;;;1.55;0.90;;;;;;;17.32;47.37;102328.78;10450895;28;20035;-52
2024/01/13 05:40:16;;;;;;;1.60;1.00;;;;;;;17.31;47.86;102331.72;10451197;28;20074;-52
2024/01/13 05:45:17;;;;;;;1.90;1.23;;;;;;;17.32;48.59;102319.94;10450538;28;20291;-52
2024/01/13 05:50:18;;;;;;;1.08;0.80;;;;;;;17.33;48.53;102302.78;10450454;28;20295;-50
2024/01/13 05:55:18;;;;;;;1.80;1.00;;;;;;;17.30;47.85;102281.84;10448461;28;20036;-50
2024/01/13 06:00:19;;;;;;;1.45;1.02;;;;;;;17.34;48.01;102262.31;10450264;28;20103;-49
2024/01/13 06:05:19;;;;;;;1.95;1.08;;;;;;;17.35;47.83;102265.81;10450045;28;20027;-51
2024/01/13 06:10:19;;;;;;;1.00;0.75;;;;;;;17.33;48.76;102265.25;10443901;28;20049;-49
2024/01/13 06:15:21;;;;;;;1.50;0.75;;;;;;;17.33;48.37;102284.03;10449572;28;20059;-51
2024/01/13 06:20:21;;;;;;;5.70;1.60;;;;;;;17.34;48.01;102282.97;10446858;28;20024;-51
2024/01/13 06:25:22;;;;;;;4.28;1.20;;;;;;;17.41;49.44;102254.09;10446366;28;20029;-52
2024/01/13 06:30:22;;;;;;;5.28;1.40;;;;;;;17.41;48.80;102268.31;10450600;28;20438;-53
2024/01/13 06:35:22;;;;;;;3.30;1.40;;;;;;;17.57;50.46;102233.63;10446750;28;20029;-50
2024/01/13 06:40:23;;;;;;;7.33;2.47;;;;;;;17.51;50.78;102205.94;10446463;28;20275;-49
2024/01/13 06:45:23;;;;;;;8.60;2.28;;;;;;;17.54;50.82;102189.34;10446168;28;20279;-55
2024/01/13 06:50:23;;;;;;;10.87;2.30;;;;;;;17.57;50.84;102190.72;10448857;28;20037;-53
2024/01/13 06:55:24;;;;;;;6.63;1.73;;;;;;;17.51;51.68;102189.84;10441888;28;20767;-55
2024/01/13 07:00:25;;;;;;;6.10;2.55;;;;;;;17.48;52.25;102185.00;10441150;28;20287;-54
2024/01/13 07:05:25;;;;;;;8.27;2.05;;;;;;;17.48;51.68;102177.75;10446061;28;20559;-54
2024/01/13 07:10:29;;;;;;;6.47;2.17;;;;;;;17.44;51.37;102175.84;10447939;28;20068;-51
2024/01/13 07:15:29;;;;;;;9.45;2.83;;;;;;;17.41;51.39;102161.06;10440568;28;20351;-52
2024/01/13 07:20:29;;;;;;;4.10;1.80;;;;;;;17.41;51.50;102166.44;10456685;28;20140;-53
2024/01/13 07:25:30;;;;;;;8.10;2.23;;;;;;;17.41;51.78;102161.06;10455499;28;20365;-52
2024/01/13 07:30:30;;;;;;;17.35;2.13;;;;;;;17.35;52.11;102148.66;10457867;28;20291;-55
2024/01/13 07:35:31;;;;;;;11.90;2.00;;;;;;;17.30;52.63;102121.00;10454991;28;20017;-52
2024/01/13 07:40:31;;;;;;;18.00;2.50;;;;;;;17.24;52.04;102123.59;10452618;28;20471;-53
2024/01/13 07:45:31;;;;;;;8.70;2.23;;;;;;;17.17;51.95;102139.09;10454487;28;20279;-51
2024/01/13 07:50:32;;;;;;;9.93;2.05;;;;;;;17.11;53.38;102137.41;10454461;28;20295;-51
2024/01/13 07:55:33;;;;;;;12.20;2.78;;;;;;;17.11;53.21;102131.25;10450096;28;20026;-49
2024/01/13 08:00:33;;;;;;;7.68;2.25;;;;;;;17.05;53.80;102132.22;10452530;28;20411;-52
2024/01/13 08:05:33;;;;;;;7.60;2.23;;;;;;;17.00;52.43;102124.94;10449184;28;20487;-53
2024/01/13 08:10:36;;;;;;;10.13;2.90;;;;;;;16.91;51.66;102110.38;10452157;28;20398;-52
2024/01/13 08:15:37;;;;;;;11.27;2.83;;;;;;;16.87;51.11;102125.31;10448095;28;20072;-53
2024/01/13 08:20:38;;;;;;;7.03;2.00;;;;;;;16.88;51.28;102116.22;10449851;28;20533;-53
2024/01/13 08:25:39;;;;;;;6.78;2.42;;;;;;;16.95;51.22;102128.38;10453217;28;20357;-52
2024/01/13 08:30:39;;;;;;;4.63;1.98;;;;;;;16.96;51.97;102129.19;10443434;28;20025;-53
2024/01/13 08:35:40;;;;;;;6.77;1.70;;;;;;;16.96;51.19;102131.88;10450780;28;20037;-54
2024/01/13 08:40:40;;;;;;;4.50;1.60;;;;;;;16.94;51.25;102115.25;10450397;28;20272;-55
2024/01/13 08:45:40;;;;;;;4.65;1.92;;;;;;;16.91;51.32;102113.03;10452787;28;20029;-54
2024/01/13 08:50:41;;;;;;;5.47;1.87;;;;;;;16.91;51.27;102116.53;10452730;28;20048;-55
2024/01/13 08:55:41;;;;;;;5.63;2.13;;;;;;;16.89;51.32;102110.63;10452709;28;20275;-55
2024/01/13 09:00:42;;;;;;;4.03;1.77;;;;;;;16.93;50.77;102110.94;10452612;28;20469;-54
2024/01/13 09:05:42;;;;;;;4.87;1.60;;;;;;;16.93;51.80;102117.13;10452268;28;20282;-53
2024/01/13 09:10:42;;;;;;;4.60;1.50;;;;;;;16.90;51.43;102125.63;10446915;28;20809;-55
2024/01/13 09:15:43;;;;;;;4.03;2.30;;;;;;;16.92;51.03;102104.75;10449290;28;20032;-55
2024/01/13 09:20:43;;;;;;;3.95;1.35;;;;;;;16.89;51.40;102115.97;10438655;28;20264;-55
2024/01/13 09:25:43;;;;;;;4.03;1.30;;;;;;;16.88;50.47;102109.00;10443408;28;20036;-53
2024/01/13 09:30:44;;;;;;;5.80;2.27;;;;;;;16.90;50.57;102117.59;10451656;28;20325;-51
2024/01/13 09:35:44;;;;;;;8.55;2.42;;;;;;;16.95;51.08;102103.47;10444849;28;20287;-50
2024/01/13 09:40:45;;;;;;;8.57;1.95;;;;;;;16.92;50.96;102087.88;10450399;28;20376;-53
2024/01/13 09:45:48;;;;;;;4.60;1.63;;;;;;;16.92;50.28;102080.63;10448740;28;20461;-54
2024/01/13 09:50:51;;;;;;;4.97;1.83;;;;;;;16.91;51.07;102080.91;10472081;28;20025;-53
2024/01/13 09:55:55;;;;;;;4.32;1.60;;;;;;;16.88;49.46;102076.03;10451568;28;20054;-52
2024/01/13 10:00:58;;;;;;;3.53;1.20;;;;;;;16.89;50.15;102075.78;10450274;28;20029;-51
2024/01/13 10:05:59;;;;;;;6.28;1.80;;;;;;;16.87;50.03;102075.25;10449521;28;20032;-50
2024/01/13 10:11:00;;;;;;;4.78;2.08;;;;;;;16.88;51.12;102079.53;10442405;28;20051;-51
2024/01/13 10:16:01;;;;;;;6.20;1.58;;;;;;;16.90;51.15;102072.03;10465628;28;20104;-52
2024/01/13 10:21:05;;;;;;;4.80;1.05;;;;;;;16.89;50.49;102069.63;10466978;28;20027;-53
2024/01/13 10:26:05;;;;;;;5.70;1.63;;;;;;;16.91;50.37;102064.81;10468170;28;20116;-53
2024/01/13 10:31:05;;;;;;;5.10;1.30;;;;;;;16.89;50.74;102062.41;10469494;28;20036;-51
2024/01/13 10:36:06;;;;;;;6.18;1.30;;;;;;;17.06;49.66;102045.44;10469337;28;20281;-52
2024/01/13 10:41:07;;;;;;;7.75;1.40;;;;;;;17.05;49.98;102044.63;10473757;28;20126;-50
2024/01/13 10:46:11;;;;;;;9.73;1.55;;;;;;;16.97;50.63;102025.50;10448813;28;20153;-48
2024/01/13 10:51:34;;;;;;;12.63;2.22;;;;;;;16.97;51.38;102015.59;10453687;28;20021;-47
2024/01/13 10:56:37;;;;;;;4.00;1.05;;;;;;;16.91;51.21;102017.41;10450553;28;20058;-49
2024/01/13 11:01:38;;;;;;;3.17;1.58;;;;;;;16.90;49.60;102023.00;10456878;28;20027;-50
2024/01/13 11:06:39;;;;;;;6.60;1.48;;;;;;;16.86;49.87;102028.09;10457911;28;20036;-52
2024/01/13 11:11:42;;;;;;;7.07;2.72;;;;;;;16.88;49.61;102039.34;10449866;28;20037;-51
2024/01/13 11:16:45;;;;;;;2.53;0.90;;;;;;;16.91;51.65;102028.13;10452160;28;20031;-51
2024/01/13 11:21:48;;;;;;;4.90;1.30;;;;;;;16.89;50.19;102013.38;10439927;28;20535;-50
2024/01/13 11:26:49;;;;;;;5.63;2.17;;;;;;;16.85;50.98;102018.44;10442371;28;20025;-54
2024/01/13 11:31:58;;;;;;;4.97;1.40;;;;;;;16.89;49.79;102010.69;10460211;28;20033;-49
2024/01/13 11:36:59;;;;;;;4.33;1.40;;;;;;;16.89;51.00;102005.34;10454160;28;20381;-51
2024/01/13 11:42:03;;;;;;;2.45;0.90;;;;;;;16.85;51.15;101993.50;10452703;28;20364;-49
2024/01/13 11:47:08;;;;;;;5.65;1.77;;;;;;;16.81;50.91;101970.94;10429292;28;20036;-46
2024/01/13 11:52:16;;;;;;;11.70;3.50;;;;;;;16.87;50.79;101949.31;10455705;28;20029;-47
2024/01/13 11:57:16;;;;;;;11.00;2.75;;;;;;;16.88;51.90;101945.59;10454639;28;20025;-49
2024/01/13 12:02:20;;;;;;;12.70;2.63;;;;;;;16.99;51.56;101929.59;10454997;28;20383;-48
2024/01/13 12:07:21;;;;;;;16.67;3.03;;;;;;;17.15;51.41;101929.47;10454142;28;20535;-48
2024/01/13 12:12:21;;;;;;;13.63;2.88;;;;;;;17.13;52.57;101928.91;10453108;28;20032;-49
2024/01/13 12:17:22;;;;;;;7.20;2.17;;;;;;;17.20;52.62;101924.16;10454155;28;20554;-46
2024/01/13 12:22:23;;;;;;;8.38;2.67;;;;;;;17.28;52.19;101914.00;10454247;28;20047;-48
2024/01/13 12:27:24;;;;;;;9.60;2.40;;;;;;;17.35;51.74;101922.66;10453488;28;20392;-46
2024/01/13 12:32:29;;;;;;;10.55;2.50;;;;;;;17.29;51.72;101926.38;10452824;28;20016;-49
2024/01/13 12:37:30;;;;;;;12.90;3.95;;;;;;;17.12;51.48;101918.47;10472102;28;20076;-51
2024/01/13 12:42:30;;;;;;;11.43;3.50;;;;;;;17.02;51.55;101911.13;10452869;28;20104;-50
2024/01/13 12:47:30;;;;;;;11.18;3.58;;;;;;;17.09;52.58;101911.75;10444735;28;20048;-49
2024/01/13 12:52:31;;;;;;;12.77;3.60;;;;;;;17.00;51.92;101897.19;10448699;28;20439;-50
2024/01/13 12:57:31;;;;;;;14.93;3.55;;;;;;;17.12;52.56;101892.47;10451751;28;20272;-53
2024/01/13 13:02:33;;;;;;;19.08;5.03;;;;;;;17.13;52.57;101885.22;10452707;28;20025;-49
2024/01/13 13:07:34;;;;;;;13.85;4.40;;;;;;;17.21;51.97;101882.09;10451941;28;20122;-50
2024/01/13 13:12:34;;;;;;;13.37;4.50;;;;;;;17.26;52.01;101876.75;10445129;28;20079;-49
2024/01/13 13:17:34;;;;;;;14.13;3.93;;;;;;;17.22;51.90;101876.47;10450365;28;20678;-50
2024/01/13 13:22:37;;;;;;;11.98;4.05;;;;;;;17.21;52.23;101879.41;10451234;28;20267;-48
2024/01/13 13:27:37;;;;;;;10.75;4.53;;;;;;;17.15;52.59;101865.16;10450892;28;20071;-53
2024/01/13 13:32:38;;;;;;;15.13;5.03;;;;;;;17.14;52.33;101852.81;10450841;28;20017;-49
2024/01/13 13:37:41;;;;;;;9.52;4.53;;;;;;;17.19;51.81;101841.34;10450561;28;20275;-50
2024/01/13 13:42:41;;;;;;;10.57;3.70;;;;;;;17.09;50.86;101836.72;10448957;28;20085;-52
2024/01/13 13:47:42;;;;;;;10.33;4.67;;;;;;;17.00;52.44;101837.44;10444969;28;20094;-49
2024/01/13 13:52:42;;;;;;;6.93;3.25;;;;;;;16.96;52.38;101839.84;10451053;28;20295;-50
2024/01/13 13:57:42;;;;;;;9.07;3.50;;;;;;;16.91;51.37;101824.50;10451407;28;20036;-52
2024/01/13 14:02:43;;;;;;;7.28;3.17;;;;;;;16.93;51.70;101827.78;10453265;28;20264;-52
2024/01/13 14:07:43;;;;;;;8.60;3.83;;;;;;;16.93;50.47;101798.31;10458536;28;20609;-52
2024/01/13 14:12:43;;;;;;;5.68;3.05;;;;;;;16.91;50.24;101800.41;10449830;28;20336;-52
2024/01/13 14:17:45;;;;;;;6.30;3.63;;;;;;;16.90;50.42;101798.78;10449059;28;20025;-50
2024/01/13 14:22:45;;;;;;;5.57;2.88;;;;;;;16.91;50.77;101804.97;10449885;28;20322;-51
2024/01/13 14:27:45;;;;;;;6.03;3.50;;;;;;;16.92;51.05;101799.34;10449747;28;20552;-50
2024/01/13 14:32:45;;;;;;;6.70;3.43;;;;;;;16.94;51.26;101793.75;10454485;28;20386;-52
2024/01/13 14:37:52;;;;;;;10.05;3.42;;;;;;;16.92;51.09;101799.34;10448925;28;20716;-54
2024/01/13 14:42:53;;;;;;;6.38;4.10;;;;;;;16.86;50.86;101787.00;10448315;28;20037;-48
2024/01/13 14:47:53;;;;;;;7.45;3.42;;;;;;;16.87;50.68;101790.47;10448818;28;20431;-51
2024/01/13 14:52:57;;;;;;;7.30;3.45;;;;;;;16.90;51.46;101788.06;10434978;28;20025;-50
2024/01/13 14:57:57;;;;;;;7.10;3.35;;;;;;;16.88;50.34;101766.09;10449477;28;20025;-51
2024/01/13 15:02:57;;;;;;;8.82;3.67;;;;;;;16.88;50.50;101757.25;10448851;28;20024;-49
2024/01/13 15:07:58;;;;;;;9.63;3.45;;;;;;;16.85;52.12;101763.94;10448700;28;20056;-49
2024/01/13 15:13:00;;;;;;;11.43;3.63;;;;;;;16.87;51.40;101752.97;10448144;28;20036;-52
2024/01/13 15:18:00;;;;;;;9.88;4.07;;;;;;;16.88;50.44;101765.28;10447398;28;20760;-51
2024/01/13 15:23:00;;;;;;;11.87;5.43;;;;;;;16.89;50.85;101765.03;10449206;28;20032;-50
2024/01/13 15:28:01;;;;;;;9.00;3.80;;;;;;;16.87;51.68;101763.69;10447241;28;20279;-48
2024/01/13 15:33:03;;;;;;;7.05;2.90;;;;;;;16.86;50.87;101762.88;10452069;28;20310;-48
2024/01/13 15:38:04;;;;;;;8.65;3.97;;;;;;;16.85;50.98;101769.31;10453717;28;20032;-49
2024/01/13 15:43:04;;;;;;;9.52;3.95;;;;;;;16.86;49.51;101759.41;10453711;28;20040;-53
2024/01/13 15:48:05;;;;;;;8.35;3.63;;;;;;;16.82;50.45;101751.06;10450779;28;20028;-52
2024/01/13 15:53:05;;;;;;;6.97;3.08;;;;;;;16.83;50.85;101752.69;10452514;28;20035;-54
2024/01/13 15:58:05;;;;;;;11.43;4.17;;;;;;;16.83;49.97;101752.69;10453954;28;20037;-52
2024/01/13 16:03:06;;;;;;;9.00;3.80;;;;;;;16.83;49.98;101762.59;10449236;28;20291;-49
2024/01/13 16:08:06;;;;;;;6.60;3.88;;;;;;;16.77;51.30;101753.69;10453815;28;20291;-48
2024/01/13 16:13:06;;;;;;;9.65;4.38;;;;;;;16.75;51.87;101753.16;10451709;28;20391;-48
2024/01/13 16:18:08;;;;;;;16.55;5.18;;;;;;;16.83;52.04;101738.50;10453721;28;20036;-50
2024/01/13 16:23:08;;;;;;;11.63;4.80;;;;;;;17.00;52.63;101741.78;10454407;28;20114;-49
2024/01/13 16:28:09;;;;;;;15.47;4.43;;;;;;;17.10;52.66;101733.81;10454323;28;20159;-52
2024/01/13 16:33:09;;;;;;;13.25;7.43;;;;;;;17.19;52.55;101731.44;10456563;28;20271;-48
2024/01/13 16:38:09;;;;;;;32.75;30.02;;;;;;;17.23;52.62;101722.63;10453676;28;20021;-51
2024/01/13 16:43:10;;;;;;;35.60;32.70;;;;;;;17.36;52.89;101724.00;10453238;28;20025;-52
2024/01/13 16:48:10;;;;;;;20.63;18.73;;;;;;;17.40;52.50;101725.09;10452672;28;20282;-50
2024/01/13 16:53:10;;;;;;;27.93;19.73;;;;;;;17.54;53.71;101720.88;10444505;28;20707;-50
2024/01/13 16:58:11;;;;;;;27.08;20.48;;;;;;;17.73;54.01;101709.66;10430357;28;20279;-50
2024/01/13 17:03:11;;;;;;;31.92;28.15;;;;;;;17.75;56.54;101702.16;10434596;28;20041;-52
2024/01/13 17:08:13;;;;;;;30.95;21.55;;;;;;;17.89;54.11;101702.47;10438690;28;20049;-49
2024/01/13 17:13:16;;;;;;;28.50;23.77;;;;;;;17.97;54.90;101691.97;10451804;28;20373;-48
2024/01/13 17:18:18;;;;;;;29.73;26.77;;;;;;;18.07;54.99;101697.34;10451963;28;20017;-48
2024/01/13 17:23:18;;;;;;;31.73;26.52;;;;;;;18.00;57.00;101696.03;10451444;28;20029;-48
2024/01/13 17:28:19;;;;;;;32.73;29.97;;;;;;;18.11;60.09;101678.84;10450381;28;20017;-46
2024/01/13 17:33:19;;;;;;;36.28;32.58;;;;;;;18.23;58.82;101675.88;10455736;28;20279;-47
2024/01/13 17:38:19;;;;;;;37.87;32.07;;;;;;;18.20;58.95;101689.84;10452152;28;20020;-46
2024/01/13 17:43:21;;;;;;;34.63;29.10;;;;;;;18.05;57.34;101685.28;10451002;28;20275;-47
2024/01/13 17:48:21;;;;;;;39.70;31.25;;;;;;;17.74;57.85;101690.63;10450990;28;20507;-47
2024/01/13 17:53:23;;;;;;;43.10;28.20;;;;;;;17.60;58.22;101678.75;10449444;28;20036;-48
2024/01/13 17:58:23;;;;;;;41.45;29.63;;;;;;;17.54;58.48;101667.22;10450430;28;20029;-46
2024/01/13 18:03:23;;;;;;;31.43;27.27;;;;;;;17.53;57.12;101662.94;10448758;28;20025;-48
2024/01/13 18:08:23;;;;;;;35.73;28.27;;;;;;;17.50;57.67;101660.75;10450232;28;20882;-50
2024/01/13 18:13:24;;;;;;;32.53;27.13;;;;;;;17.43;57.25;101654.88;10449999;28;20290;-48
2024/01/13 18:18:24;;;;;;;40.73;25.07;;;;;;;17.31;57.18;101648.13;10450378;28;20612;-48
2024/01/13 18:23:24;;;;;;;36.83;24.13;;;;;;;17.30;56.59;101651.88;10449650;28;20283;-48
2024/01/13 18:28:25;;;;;;;28.47;22.67;;;;;;;17.19;57.67;101654.53;10449910;28;20287;-47
2024/01/13 18:33:25;;;;;;;36.17;22.43;;;;;;;17.12;56.74;101648.59;10454148;28;20328;-46
2024/01/13 18:38:25;;;;;;;34.73;21.20;;;;;;;17.06;56.98;101643.50;10449585;28;20336;-49
2024/01/13 18:43:27;;;;;;;28.03;21.50;;;;;;;16.96;56.83;101633.53;10449420;28;20305;-48
2024/01/13 18:48:27;;;;;;;23.50;19.70;;;;;;;16.91;55.80;101636.19;10449617;28;20382;-47
2024/01/13 18:53:30;;;;;;;25.67;18.40;;;;;;;16.86;54.38;101628.16;10449079;28;20495;-51
2024/01/13 18:58:30;;;;;;;27.90;16.52;;;;;;;16.85;54.42;101630.03;10449253;28;20037;-49
2024/01/13 19:03:30;;;;;;;27.75;15.23;;;;;;;16.95;54.62;101624.69;10447843;28;20468;-47
2024/01/13 19:08:31;;;;;;;19.30;13.93;;;;;;;17.10;54.23;101626.63;10451883;28;20537;-47
2024/01/13 19:13:31;;;;;;;20.93;14.37;;;;;;;17.16;53.39;101614.84;10456646;28;20360;-48
2024/01/13 19:18:31;;;;;;;15.23;13.18;;;;;;;17.22;54.42;101613.00;10456909;28;20283;-47
2024/01/13 19:23:32;;;;;;;19.80;13.52;;;;;;;17.29;54.12;101599.34;10456364;28;20025;-46
2024/01/13 19:28:33;;;;;;;18.40;13.15;;;;;;;17.32;53.63;101588.09;10456546;28;20029;-47
2024/01/13 19:33:33;;;;;;;18.13;12.02;;;;;;;17.29;54.11;101592.13;10460073;28;20051;-48
2024/01/13 19:38:34;;;;;;;16.10;12.37;;;;;;;17.21;54.03;101588.06;10456340;28;20053;-47
2024/01/13 19:43:34;;;;;;;14.32;11.75;;;;;;;17.28;53.38;101589.69;10455544;28;20267;-45
2024/01/13 19:48:35;;;;;;;12.45;11.23;;;;;;;17.20;55.29;101572.25;10455892;28;20021;-48
2024/01/13 19:53:35;;;;;;;13.43;11.43;;;;;;;17.15;55.10;101569.56;10454599;28;20035;-47
2024/01/13 19:58:35;;;;;;;13.33;10.70;;;;;;;17.19;55.11;101566.09;10454816;28;20686;-47
2024/01/13 20:03:36;;;;;;;12.80;10.68;;;;;;;17.20;54.23;101553.50;10475699;28;20276;-50
2024/01/13 20:08:36;;;;;;;12.77;9.50;;;;;;;17.09;54.39;101547.31;10450436;28;20042;-46
2024/01/13 20:13:37;;;;;;;13.20;9.90;;;;;;;17.04;53.37;101555.31;10453884;28;20028;-46
2024/01/13 20:18:37;;;;;;;10.73;8.93;;;;;;;17.04;53.78;101543.81;10452842;28;20523;-52
2024/01/13 20:23:37;;;;;;;10.43;8.83;;;;;;;16.99;53.19;101541.94;10452989;28;20273;-49
2024/01/13 20:28:38;;;;;;;10.20;8.77;;;;;;;17.00;54.13;101532.00;10462674;28;20382;-48
2024/01/13 20:33:38;;;;;;;11.05;9.73;;;;;;;17.01;52.94;101521.03;10457004;28;20033;-48
2024/01/13 20:38:39;;;;;;;9.88;8.13;;;;;;;17.02;53.29;101517.28;10452769;28;20096;-49
2024/01/13 20:43:39;;;;;;;8.80;7.90;;;;;;;17.02;53.27;101501.19;10450652;28;20039;-47
2024/01/13 20:48:40;;;;;;;8.00;7.13;;;;;;;17.05;52.39;101507.91;10451343;28;20025;-47
2024/01/13 20:53:40;;;;;;;10.05;8.27;;;;;;;17.04;52.31;101496.38;10451083;28;20607;-48
2024/01/13 20:58:41;;;;;;;9.00;7.70;;;;;;;17.06;53.02;101480.06;10451295;28;20691;-47
2024/01/13 21:03:41;;;;;;;7.72;7.03;;;;;;;17.11;52.89;101478.19;10450604;28;20024;-50
2024/01/13 21:08:41;;;;;;;7.57;6.87;;;;;;;17.20;52.58;101470.41;10444103;28;20045;-48
2024/01/13 21:13:45;;;;;;;9.40;6.40;;;;;;;17.24;51.46;101471.47;10451044;28;20279;-52
2024/01/13 21:18:45;;;;;;;9.25;6.78;;;;;;;17.28;51.13;101469.06;10452239;28;20332;-48
2024/01/13 21:23:45;;;;;;;8.13;7.32;;;;;;;17.26;51.73;101453.25;10451718;28;20032;-47
2024/01/13 21:28:46;;;;;;;7.40;6.30;;;;;;;17.30;52.05;101454.34;10451662;28;20033;-47
2024/01/13 21:33:46;;;;;;;6.65;5.93;;;;;;;17.29;51.92;101447.38;10450430;28;20275;-47
2024/01/13 21:38:48;;;;;;;8.13;6.63;;;;;;;17.29;52.10;101439.34;10450983;28;20024;-47
2024/01/13 21:43:48;;;;;;;8.48;5.97;;;;;;;17.25;51.96;101440.94;10451214;28;20056;-49
2024/01/13 21:48:48;;;;;;;5.30;4.80;;;;;;;17.27;51.00;101435.28;10450343;28;20096;-50
2024/01/13 21:53:49;;;;;;;5.67;5.07;;;;;;;17.26;52.29;101434.50;10451076;28;20275;-48
2024/01/13 21:58:49;;;;;;;7.40;5.93;;;;;;;17.26;51.96;101429.13;10450333;28;20278;-51
2024/01/13 22:03:50;;;;;;;10.17;5.37;;;;;;;17.25;51.82;101417.59;10450547;28;20537;-50
2024/01/13 22:08:50;;;;;;;6.37;5.70;;;;;;;17.24;50.70;101412.53;10443633;28;20374;-49
2024/01/13 22:13:50;;;;;;;8.52;5.47;;;;;;;17.31;50.41;101401.53;10450359;28;20844;-47
2024/01/13 22:18:52;;;;;;;5.87;4.77;;;;;;;17.30;50.64;101406.09;10448913;28;20025;-48
2024/01/13 22:23:52;;;;;;;5.63;5.07;;;;;;;17.24;50.90;101397.25;10450232;28;20811;-50
2024/01/13 22:28:53;;;;;;;5.30;4.80;;;;;;;17.22;51.02;101388.66;10449542;28;20021;-48
2024/01/13 22:33:53;;;;;;;6.45;4.70;;;;;;;17.23;51.07;101394.84;10453134;28;20272;-49
2024/01/13 22:38:54;;;;;;;5.70;4.93;;;;;;;17.20;51.83;101381.97;10449251;28;20040;-45
2024/01/13 22:43:54;;;;;;;6.37;5.57;;;;;;;17.21;51.09;101373.66;10455622;28;20020;-46
2024/01/13 22:48:54;;;;;;;5.88;5.32;;;;;;;17.23;50.60;101368.84;10457086;28;20295;-47
2024/01/13 22:53:55;;;;;;;5.80;5.20;;;;;;;17.27;50.69;101376.31;10457818;28;20031;-46
2024/01/13 22:58:55;;;;;;;5.50;4.90;;;;;;;17.30;51.04;101371.25;10457306;28;20291;-50